Time;durP1;ratioP1;P1;durP2;ratioP2;P2;SDS_P1;SDS_P2;PMS_P1;PMS_P2;Temp;Humidity;BMP_temperature;BMP_pressure;BME280_temperature;BME280_humidity;BME280_pressure;Samples;Min_cycle;Max_cycle;Signal;HPM_P1;HPM_P2
2022/08/10 00:00:30;;;;;;;6.70;6.10;;;15.10;99.90;;;;;;4999214;28;20048;-78
2022/08/10 00:02:58;;;;;;;6.80;6.20;;;15.10;99.90;;;;;;4998115;28;20049;-79
2022/08/10 00:05:26;;;;;;;6.55;5.95;;;15.10;99.90;;;;;;5016127;28;20385;-78
2022/08/10 00:07:53;;;;;;;7.13;6.35;;;15.00;99.90;;;;;;5015246;28;20527;-79
2022/08/10 00:10:21;;;;;;;7.65;6.90;;;15.10;99.90;;;;;;5005977;28;20038;-79
2022/08/10 00:12:47;;;;;;;8.45;6.95;;;15.10;99.90;;;;;;5016568;28;20061;-78
2022/08/10 00:15:16;;;;;;;7.25;6.55;;;15.10;99.90;;;;;;4995346;28;20156;-77
2022/08/10 00:17:42;;;;;;;8.15;6.55;;;15.10;99.90;;;;;;5013387;28;20861;-76
2022/08/10 00:20:11;;;;;;;8.05;5.93;;;15.10;99.90;;;;;;5018307;28;20111;-77
2022/08/10 00:22:37;;;;;;;7.60;6.68;;;15.20;99.90;;;;;;4993653;28;20444;-77
2022/08/10 00:25:03;;;;;;;7.57;6.88;;;15.20;99.90;;;;;;5008869;28;20180;-77
2022/08/10 00:27:29;;;;;;;7.97;7.18;;;15.20;99.90;;;;;;4993634;28;20116;-77
2022/08/10 00:29:55;;;;;;;7.28;6.57;;;15.10;99.90;;;;;;5007495;28;20128;-77
2022/08/10 00:32:25;;;;;;;7.38;6.63;;;15.10;99.90;;;;;;4998099;28;20048;-77
2022/08/10 00:34:51;;;;;;;8.10;7.30;;;15.10;99.90;;;;;;5008104;28;20604;-77
2022/08/10 00:37:17;;;;;;;8.35;7.38;;;15.10;99.90;;;;;;5010836;28;20053;-77
2022/08/10 00:39:44;;;;;;;8.27;7.50;;;15.10;99.90;;;;;;4996323;28;20505;-77
2022/08/10 00:42:14;;;;;;;7.78;7.05;;;15.10;99.90;;;;;;5010037;28;20127;-76
2022/08/10 00:44:46;;;;;;;7.55;6.80;;;15.10;99.90;;;;;;4993560;28;20046;-77
2022/08/10 00:47:12;;;;;;;7.60;6.47;;;15.00;99.90;;;;;;5008288;28;20060;-77
2022/08/10 00:49:42;;;;;;;7.68;6.82;;;15.00;99.90;;;;;;4988164;28;20053;-77
2022/08/10 00:52:12;;;;;;;6.70;6.00;;;14.90;99.90;;;;;;4997896;28;21447;-78
2022/08/10 00:54:42;;;;;;;7.50;6.80;;;14.90;99.90;;;;;;5008924;28;20128;-77
2022/08/10 00:57:09;;;;;;;7.50;6.53;;;14.90;99.90;;;;;;5012885;28;20167;-77
2022/08/10 00:59:38;;;;;;;7.40;6.70;;;14.90;99.90;;;;;;5003141;28;20104;-77
2022/08/10 01:02:04;;;;;;;7.55;6.85;;;14.80;99.90;;;;;;5006070;28;20048;-77
2022/08/10 01:04:30;;;;;;;9.15;7.88;;;14.80;99.90;;;;;;4997325;28;20038;-77
2022/08/10 01:07:34;;;;;;;7.88;7.07;;;14.80;99.90;;;;;;5001059;28;20546;-77
2022/08/10 01:10:37;;;;;;;8.60;7.80;;;14.80;99.90;;;;;;5012088;28;20128;-77
2022/08/10 01:13:45;;;;;;;8.20;7.25;;;14.80;99.90;;;;;;4972791;28;20388;-77
2022/08/10 01:16:19;;;;;;;9.10;8.18;;;14.80;99.90;;;;;;4979531;28;20042;-77
2022/08/10 01:18:52;;;;;;;10.00;9.05;;;14.80;99.90;;;;;;5004392;28;20073;-77
2022/08/10 01:21:34;;;;;;;9.90;8.95;;;14.80;99.90;;;;;;5014521;28;20073;-77
2022/08/10 01:24:34;;;;;;;10.07;9.05;;;14.80;99.90;;;;;;4996796;28;20140;-77
2022/08/10 01:27:19;;;;;;;;;;;14.80;99.90;;;;;;5003050;28;20057;-77
2022/08/10 01:29:58;;;;;;;10.27;8.95;;;14.70;99.90;;;;;;5015311;28;19921;-77
2022/08/10 01:32:41;;;;;;;10.48;9.48;;;14.70;99.90;;;;;;5011950;28;20116;-77
2022/08/10 01:35:21;;;;;;;11.20;9.77;;;14.70;99.90;;;;;;5015485;28;20073;-78
2022/08/10 01:37:56;;;;;;;10.07;9.07;;;14.70;99.90;;;;;;4993683;28;20053;-79
2022/08/10 01:40:26;;;;;;;9.73;8.90;;;14.70;99.90;;;;;;5018620;28;20052;-79
2022/08/10 01:42:55;;;;;;;10.95;9.95;;;14.70;99.90;;;;;;5010253;28;20049;-78
2022/08/10 01:45:24;;;;;;;11.85;9.20;;;14.60;99.90;;;;;;5015409;28;20242;-79
2022/08/10 01:51:08;;;;;;;12.07;10.98;;;14.50;99.90;;;;;;5012851;28;20053;-79
2022/08/10 01:53:39;;;;;;;11.38;10.27;;;14.50;99.90;;;;;;5008880;28;20046;-79
2022/08/10 01:56:07;;;;;;;11.23;10.13;;;14.50;99.90;;;;;;5010435;28;20048;-79
2022/08/10 01:58:35;;;;;;;15.05;13.52;;;14.50;99.90;;;;;;5008451;28;20678;-79
2022/08/10 02:01:03;;;;;;;14.60;13.10;;;14.50;99.90;;;;;;5011236;28;20636;-79
2022/08/10 02:03:32;;;;;;;14.38;12.98;;;14.50;99.90;;;;;;5019189;28;20048;-78
2022/08/10 02:05:59;;;;;;;14.30;12.98;;;14.50;99.90;;;;;;5014854;28;20050;-79
2022/08/10 02:08:27;;;;;;;16.10;14.40;;;14.50;99.90;;;;;;5015727;28;20053;-79
2022/08/10 02:10:58;;;;;;;15.13;13.63;;;14.50;99.90;;;;;;5021515;28;20076;-78
2022/08/10 02:13:25;;;;;;;14.80;13.40;;;14.50;99.90;;;;;;5024133;28;20052;-79
2022/08/10 02:15:54;;;;;;;15.45;13.95;;;14.50;99.90;;;;;;5007199;28;20037;-78
2022/08/10 02:18:24;;;;;;;16.70;15.00;;;14.40;99.90;;;;;;4990379;28;20045;-78
2022/08/10 02:20:51;;;;;;;14.13;12.68;;;14.40;99.90;;;;;;5002447;28;20053;-79
2022/08/10 02:23:26;;;;;;;16.77;15.15;;;14.40;99.90;;;;;;5002348;28;20133;-78
2022/08/10 02:25:55;;;;;;;15.63;13.85;;;14.40;99.90;;;;;;5009785;28;20053;-79
2022/08/10 02:28:23;;;;;;;17.20;15.50;;;14.30;99.90;;;;;;5011810;28;20041;-79
2022/08/10 02:30:54;;;;;;;14.98;13.45;;;14.30;99.90;;;;;;5012946;28;20117;-78
2022/08/10 02:33:26;;;;;;;16.20;14.50;;;14.30;99.90;;;;;;5016873;28;20045;-78
2022/08/10 02:35:54;;;;;;;15.63;14.05;;;14.30;99.90;;;;;;5018819;28;20539;-78
2022/08/10 02:38:26;;;;;;;16.27;14.65;;;14.20;99.90;;;;;;5017183;28;20485;-79
2022/08/10 02:40:56;;;;;;;17.08;15.38;;;14.10;99.90;;;;;;5018947;28;20111;-79
2022/08/10 02:43:36;;;;;;;18.00;16.10;;;14.10;99.90;;;;;;5015056;28;20152;-78
2022/08/10 02:46:15;;;;;;;17.70;15.68;;;14.10;99.90;;;;;;4999913;28;20042;-79
2022/08/10 02:48:47;;;;;;;18.40;15.98;;;14.00;99.90;;;;;;5010564;28;20097;-79
2022/08/10 02:51:26;;;;;;;17.08;15.43;;;14.00;99.90;;;;;;5019162;28;20065;-78
2022/08/10 02:54:00;;;;;;;19.30;17.33;;;14.00;99.90;;;;;;5003592;28;20041;-79
2022/08/10 02:56:38;;;;;;;17.60;15.73;;;14.00;99.90;;;;;;5016467;28;20095;-79
2022/08/10 02:59:26;;;;;;;18.85;16.95;;;14.00;99.90;;;;;;5014473;28;20067;-79
2022/08/10 03:01:56;;;;;;;17.02;15.32;;;14.00;99.90;;;;;;5010208;28;20085;-79
2022/08/10 03:04:52;;;;;;;16.75;15.07;;;14.00;99.90;;;;;;5016779;28;20061;-80
2022/08/10 03:07:24;;;;;;;17.20;15.50;;;14.00;99.90;;;;;;5012918;28;20567;-79
2022/08/10 03:09:55;;;;;;;18.13;16.30;;;13.90;99.90;;;;;;5010727;28;20124;-79
2022/08/10 03:12:22;;;;;;;18.95;17.05;;;13.90;99.90;;;;;;5025815;28;20049;-79
2022/08/10 03:14:49;;;;;;;17.65;15.85;;;13.90;99.90;;;;;;5008759;28;20045;-79
2022/08/10 03:17:16;;;;;;;17.38;15.68;;;13.90;99.90;;;;;;5024462;28;20124;-80
2022/08/10 03:19:43;;;;;;;17.85;16.08;;;13.90;99.90;;;;;;5007070;28;20128;-79
2022/08/10 03:22:10;;;;;;;19.38;17.48;;;13.90;99.90;;;;;;5006729;28;20069;-79
2022/08/10 03:24:36;;;;;;;21.13;19.00;;;13.90;99.90;;;;;;5025424;28;20053;-79
2022/08/10 03:27:04;;;;;;;20.63;18.52;;;13.80;99.90;;;;;;5015935;28;20045;-79
2022/08/10 03:29:31;;;;;;;21.55;19.30;;;13.90;99.90;;;;;;5008581;28;20045;-79
2022/08/10 03:31:58;;;;;;;21.10;18.98;;;13.80;99.90;;;;;;5023458;28;20054;-79
2022/08/10 03:34:25;;;;;;;20.50;18.35;;;13.80;99.90;;;;;;5001776;28;20149;-79
2022/08/10 03:36:51;;;;;;;18.92;17.00;;;13.90;99.90;;;;;;5020801;28;20049;-78
2022/08/10 03:39:18;;;;;;;20.05;18.05;;;13.90;99.90;;;;;;5005027;28;20053;-79
2022/08/10 03:41:54;;;;;;;20.02;18.10;;;14.00;99.90;;;;;;5007696;28;20123;-79
2022/08/10 03:44:23;;;;;;;22.60;18.77;;;14.00;99.90;;;;;;5025896;28;20073;-79
2022/08/10 03:46:51;;;;;;;21.58;19.20;;;14.00;99.90;;;;;;5010144;28;20054;-79
2022/08/10 03:49:18;;;;;;;20.63;18.45;;;14.00;99.90;;;;;;5006241;28;20080;-79
2022/08/10 03:51:47;;;;;;;20.63;18.02;;;14.00;99.90;;;;;;5005748;28;20049;-79
2022/08/10 03:54:18;;;;;;;20.08;18.02;;;14.00;99.90;;;;;;5013325;28;20049;-79
2022/08/10 03:56:46;;;;;;;;;;;14.00;99.90;;;;;;5024286;28;20591;-79
2022/08/10 03:59:16;;;;;;;30.65;22.33;;;14.00;99.90;;;;;;5020626;28;20269;-79
2022/08/10 04:01:48;;;;;;;35.80;24.13;;;14.00;99.90;;;;;;5020413;28;20587;-79
2022/08/10 04:04:14;;;;;;;20.10;18.00;;;14.10;99.90;;;;;;5017270;28;20048;-79
2022/08/10 04:06:40;;;;;;;24.35;20.58;;;14.10;99.90;;;;;;5023442;28;20087;-79
2022/08/10 04:09:06;;;;;;;22.52;19.17;;;14.10;99.90;;;;;;5024200;28;20053;-79
2022/08/10 04:11:32;;;;;;;23.40;20.90;;;14.10;99.90;;;;;;5020684;28;20046;-79
2022/08/10 04:13:58;;;;;;;22.73;20.42;;;14.20;99.90;;;;;;5013939;28;20073;-79
2022/08/10 04:16:23;;;;;;;25.23;21.58;;;14.20;99.90;;;;;;5004364;28;20073;-79
2022/08/10 04:18:49;;;;;;;23.92;20.90;;;14.20;99.90;;;;;;5008866;28;20073;-79
2022/08/10 04:21:25;;;;;;;23.85;21.25;;;14.20;99.90;;;;;;5019000;28;20063;-79
2022/08/10 04:23:52;;;;;;;25.50;21.83;;;14.20;99.90;;;;;;5014644;28;20069;-79
2022/08/10 04:26:19;;;;;;;26.05;20.70;;;14.10;99.90;;;;;;5021211;28;20107;-80
2022/08/10 04:28:48;;;;;;;24.33;20.20;;;14.20;99.90;;;;;;5014314;28;20061;-80
2022/08/10 04:31:17;;;;;;;26.92;20.10;;;14.20;99.90;;;;;;5008631;28;20064;-79
2022/08/10 04:33:49;;;;;;;26.40;20.90;;;14.20;99.90;;;;;;5020501;28;20530;-79
2022/08/10 04:36:20;;;;;;;23.60;20.17;;;14.20;99.90;;;;;;5018980;28;20049;-79
2022/08/10 04:38:50;;;;;;;30.67;21.63;;;14.10;99.90;;;;;;5023819;28;20435;-79
2022/08/10 04:41:16;;;;;;;30.80;21.63;;;14.20;99.90;;;;;;5024983;28;20081;-79
2022/08/10 04:43:42;;;;;;;27.52;20.45;;;14.10;99.90;;;;;;5021988;28;20053;-80
2022/08/10 04:46:08;;;;;;;30.60;21.00;;;14.20;99.90;;;;;;5020834;28;20099;-79
2022/08/10 04:48:33;;;;;;;40.28;21.98;;;14.10;99.90;;;;;;5021264;28;20053;-79
2022/08/10 04:50:59;;;;;;;49.97;21.42;;;14.10;99.90;;;;;;5020923;28;20045;-79
2022/08/10 04:53:28;;;;;;;56.65;22.35;;;14.10;99.90;;;;;;5018753;28;20073;-79
2022/08/10 04:55:54;;;;;;;46.20;22.15;;;14.20;99.90;;;;;;4993508;28;20049;-80
2022/08/10 04:58:20;;;;;;;74.55;23.65;;;14.20;99.90;;;;;;5009082;28;20057;-78
2022/08/10 05:00:49;;;;;;;38.72;20.70;;;14.20;99.90;;;;;;5003439;28;20065;-79
2022/08/10 05:03:14;;;;;;;43.97;21.75;;;14.20;99.90;;;;;;5012631;28;20041;-80
2022/08/10 05:05:40;;;;;;;32.63;21.80;;;14.20;99.90;;;;;;5001022;28;22125;-79
2022/08/10 05:08:06;;;;;;;24.08;19.65;;;14.20;99.90;;;;;;4994754;28;20052;-79
2022/08/10 05:10:32;;;;;;;46.80;22.58;;;14.20;99.90;;;;;;5022315;28;20103;-79
2022/08/10 05:12:58;;;;;;;29.60;20.88;;;14.30;99.90;;;;;;4999727;28;20038;-79
2022/08/10 05:15:26;;;;;;;39.85;23.23;;;14.30;99.90;;;;;;4988732;28;20042;-79
2022/08/10 05:17:58;;;;;;;28.00;21.95;;;14.40;99.90;;;;;;5001493;28;20133;-79
2022/08/10 05:20:23;;;;;;;35.92;22.60;;;14.40;99.90;;;;;;5016229;28;20048;-79
2022/08/10 05:22:55;;;;;;;31.35;21.67;;;14.40;99.90;;;;;;5012544;28;20053;-79
2022/08/10 05:25:21;;;;;;;30.85;21.60;;;14.50;99.90;;;;;;5009947;28;20484;-79
2022/08/10 05:27:50;;;;;;;32.08;21.80;;;14.50;99.90;;;;;;5000945;28;20045;-77
2022/08/10 05:30:18;;;;;;;40.03;24.48;;;14.50;99.90;;;;;;5015949;28;20054;-78
2022/08/10 05:32:48;;;;;;;29.10;22.35;;;14.60;99.90;;;;;;4998782;28;20041;-77
2022/08/10 05:35:14;;;;;;;30.23;22.67;;;14.60;99.90;;;;;;5002330;28;20072;-79
2022/08/10 05:37:41;;;;;;;30.55;23.35;;;14.60;99.90;;;;;;5002227;28;20076;-79
2022/08/10 05:40:08;;;;;;;64.88;30.85;;;14.70;99.90;;;;;;5013908;28;20053;-78
2022/08/10 05:42:34;;;;;;;39.53;26.48;;;14.70;99.90;;;;;;5006542;28;20049;-79
2022/08/10 05:45:01;;;;;;;33.60;24.73;;;14.80;99.90;;;;;;5019260;28;20056;-80
2022/08/10 05:47:27;;;;;;;31.88;23.80;;;14.80;99.90;;;;;;4998049;28;20124;-78
2022/08/10 05:49:56;;;;;;;29.70;23.27;;;14.80;99.90;;;;;;5018600;28;20545;-78
2022/08/10 05:52:23;;;;;;;30.13;23.67;;;14.90;99.90;;;;;;4998576;28;20503;-78
2022/08/10 05:54:49;;;;;;;30.05;23.92;;;14.90;99.90;;;;;;5011735;28;20500;-79
2022/08/10 05:57:17;;;;;;;30.20;24.30;;;15.00;99.90;;;;;;5005718;28;20064;-78
2022/08/10 05:59:50;;;;;;;32.78;26.75;;;15.00;99.90;;;;;;5001478;28;20049;-78
2022/08/10 06:02:40;;;;;;;28.77;24.67;;;15.10;99.90;;;;;;4994929;28;20064;-77
2022/08/10 06:05:09;;;;;;;30.70;25.55;;;15.10;99.90;;;;;;5012038;28;20053;-78
2022/08/10 06:07:58;;;;;;;28.40;24.40;;;15.20;99.90;;;;;;5007970;28;20054;-78
2022/08/10 06:10:25;;;;;;;27.95;24.98;;;15.30;99.90;;;;;;5016889;28;20060;-78
2022/08/10 06:15:37;;;;;;;26.75;22.85;;;15.50;99.90;;;;;;5011699;28;20072;-78
2022/08/10 06:18:04;;;;;;;24.10;21.58;;;15.60;99.90;;;;;;4994431;28;20034;-79
2022/08/10 06:20:30;;;;;;;25.30;22.38;;;15.70;99.90;;;;;;5032331;28;20053;-79
2022/08/10 06:23:02;;;;;;;24.33;21.27;;;15.80;99.90;;;;;;5008450;28;20088;-79
2022/08/10 06:25:31;;;;;;;24.42;20.58;;;15.90;99.90;;;;;;5015459;28;20051;-78
2022/08/10 06:27:59;;;;;;;22.20;19.73;;;16.00;99.90;;;;;;5007557;28;20107;-76
2022/08/10 06:30:27;;;;;;;22.20;19.90;;;16.10;99.90;;;;;;5022318;28;20045;-76
2022/08/10 06:32:56;;;;;;;19.67;17.65;;;16.20;99.90;;;;;;5002078;28;20515;-76
2022/08/10 06:35:31;;;;;;;21.25;16.75;;;16.30;99.90;;;;;;5015143;28;20407;-76
2022/08/10 06:37:59;;;;;;;17.40;15.55;;;16.40;99.90;;;;;;5011587;28;20053;-76
2022/08/10 06:40:28;;;;;;;16.85;14.88;;;16.50;99.90;;;;;;5016038;28;20040;-76
2022/08/10 06:42:56;;;;;;;15.52;13.93;;;16.60;99.90;;;;;;5016315;28;20054;-76
2022/08/10 06:45:30;;;;;;;16.35;13.93;;;16.70;99.90;;;;;;5006344;28;20080;-77
2022/08/10 06:48:21;;;;;;;14.65;13.15;;;16.90;99.90;;;;;;4999667;28;20445;-76
2022/08/10 06:50:50;;;;;;;14.57;13.07;;;17.00;99.90;;;;;;5014964;28;20034;-76
2022/08/10 06:53:19;;;;;;;13.60;12.20;;;17.10;99.90;;;;;;5017624;28;20407;-76
2022/08/10 06:55:50;;;;;;;13.27;11.93;;;17.10;99.90;;;;;;5016460;28;20037;-76
2022/08/10 06:58:20;;;;;;;13.75;12.00;;;17.30;99.90;;;;;;5018953;28;20041;-76
2022/08/10 07:00:55;;;;;;;13.10;11.80;;;17.40;99.90;;;;;;5014520;28;20049;-76
2022/08/10 07:03:31;;;;;;;11.52;10.38;;;17.50;99.90;;;;;;5032349;28;20058;-76
2022/08/10 07:05:59;;;;;;;11.98;10.88;;;17.60;99.90;;;;;;5036072;28;20504;-77
2022/08/10 07:08:30;;;;;;;11.77;10.60;;;17.70;99.90;;;;;;5012799;28;20071;-76
2022/08/10 07:10:56;;;;;;;10.48;9.48;;;17.80;99.90;;;;;;5017539;28;20042;-75
2022/08/10 07:13:23;;;;;;;10.00;9.00;;;17.90;99.90;;;;;;5005937;28;20490;-76
2022/08/10 07:15:50;;;;;;;11.10;9.40;;;18.00;99.90;;;;;;4996407;28;20116;-76
2022/08/10 07:18:21;;;;;;;10.35;9.32;;;18.00;99.90;;;;;;5001494;28;20132;-76
2022/08/10 07:20:48;;;;;;;11.15;9.23;;;18.20;99.90;;;;;;5011413;28;20050;-77
2022/08/10 07:23:17;;;;;;;8.75;7.95;;;18.30;99.90;;;;;;5018639;28;20277;-79
2022/08/10 07:25:46;;;;;;;9.15;8.20;;;18.40;99.90;;;;;;5015140;28;20117;-77
2022/08/10 07:28:13;;;;;;;8.87;7.97;;;18.50;99.90;;;;;;5000510;28;20104;-78
2022/08/10 07:30:40;;;;;;;10.27;7.30;;;18.60;99.90;;;;;;5009394;28;20046;-78
2022/08/10 07:33:07;;;;;;;7.38;6.68;;;18.80;99.90;;;;;;4999506;28;20042;-78
2022/08/10 07:35:35;;;;;;;8.90;7.32;;;18.90;99.90;;;;;;5009277;28;20038;-79
2022/08/10 07:38:04;;;;;;;7.85;6.68;;;19.00;99.90;;;;;;5009353;28;20049;-79
2022/08/10 07:40:31;;;;;;;7.45;6.45;;;19.10;99.90;;;;;;5008552;28;20037;-74
2022/08/10 07:43:03;;;;;;;8.52;6.90;;;19.20;99.90;;;;;;5012941;28;20057;-76
2022/08/10 07:45:32;;;;;;;7.93;6.40;;;19.40;99.90;;;;;;5008312;28;20049;-76
2022/08/10 07:48:02;;;;;;;7.53;5.60;;;19.60;99.90;;;;;;5011142;28;20050;-77
2022/08/10 07:50:28;;;;;;;;;;;19.70;99.90;;;;;;5017709;28;20041;-76
2022/08/10 07:52:59;;;;;;;8.07;6.72;;;19.80;99.90;;;;;;5017128;28;19963;-76
2022/08/10 07:55:25;;;;;;;7.85;5.78;;;19.90;99.90;;;;;;5014018;28;20496;-76
2022/08/10 07:57:54;;;;;;;8.50;6.50;;;20.00;99.90;;;;;;4994691;28;20053;-79
2022/08/10 08:00:21;;;;;;;8.38;6.90;;;20.20;99.90;;;;;;5017469;28;20500;-79
2022/08/10 08:02:52;;;;;;;9.23;6.20;;;20.40;99.90;;;;;;5018692;28;20053;-78
2022/08/10 08:05:21;;;;;;;6.97;6.28;;;20.60;99.90;;;;;;5012102;28;20065;-79
2022/08/10 08:07:48;;;;;;;8.75;6.05;;;20.70;99.90;;;;;;4998573;28;20136;-78
2022/08/10 08:10:16;;;;;;;8.52;5.93;;;20.80;99.90;;;;;;5000897;28;20050;-78
2022/08/10 08:12:44;;;;;;;6.90;5.68;;;20.90;99.90;;;;;;5012594;28;20052;-78
2022/08/10 08:15:17;;;;;;;8.77;5.43;;;21.00;99.90;;;;;;4996242;28;20710;-79
2022/08/10 08:17:46;;;;;;;8.00;5.72;;;21.00;99.90;;;;;;5010619;28;20053;-78
2022/08/10 08:20:13;;;;;;;8.05;5.07;;;21.20;99.90;;;;;;5029940;28;20145;-78
2022/08/10 08:22:40;;;;;;;8.52;5.95;;;21.30;99.90;;;;;;5007969;28;20116;-78
2022/08/10 08:25:07;;;;;;;9.43;4.75;;;21.40;99.90;;;;;;5018880;28;20498;-79
2022/08/10 08:27:35;;;;;;;7.53;4.50;;;21.50;99.90;;;;;;4999949;28;20053;-78
2022/08/10 08:30:02;;;;;;;7.95;5.55;;;21.60;99.90;;;;;;4997492;28;20053;-79
2022/08/10 08:32:32;;;;;;;6.45;4.85;;;21.80;99.90;;;;;;5010316;28;20042;-79
2022/08/10 08:35:13;;;;;;;7.93;4.57;;;21.90;99.90;;;;;;5028836;28;20180;-78
2022/08/10 08:37:41;;;;;;;9.48;4.88;;;22.10;99.90;;;;;;5014471;28;20107;-78
2022/08/10 08:40:10;;;;;;;5.80;4.63;;;22.20;99.90;;;;;;4993250;28;20884;-78
2022/08/10 08:43:14;;;;;;;5.55;4.60;;;22.30;99.90;;;;;;5009715;28;20072;-78
2022/08/10 08:46:11;;;;;;;6.32;4.05;;;22.40;99.90;;;;;;4993668;28;20694;-78
2022/08/10 08:49:04;;;;;;;8.60;3.90;;;22.50;99.90;;;;;;4997316;28;20096;-78
2022/08/10 08:52:05;;;;;;;13.13;4.28;;;22.60;99.90;;;;;;4988503;28;20048;-77
2022/08/10 08:54:42;;;;;;;6.55;3.78;;;22.80;99.90;;;;;;5005630;28;20573;-77
2022/08/10 08:57:29;;;;;;;6.13;4.18;;;22.90;99.90;;;;;;5008543;28;20291;-78
2022/08/10 08:59:55;;;;;;;6.55;3.75;;;23.00;99.90;;;;;;5003645;28;20060;-77
2022/08/10 09:02:30;;;;;;;6.95;4.22;;;23.10;99.90;;;;;;4998665;28;20128;-78
2022/08/10 09:05:19;;;;;;;5.63;3.22;;;23.20;99.90;;;;;;5008361;28;20132;-78
2022/08/10 09:08:03;;;;;;;5.60;2.70;;;23.30;99.90;;;;;;4975345;28;20049;-78
2022/08/10 09:10:55;;;;;;;6.72;3.20;;;23.40;99.90;;;;;;5004946;28;20611;-78
2022/08/10 09:13:42;;;;;;;4.35;2.75;;;23.50;99.90;;;;;;5017257;28;20045;-77
2022/08/10 09:16:20;;;;;;;4.55;2.70;;;23.60;99.90;;;;;;5004157;28;20050;-77
2022/08/10 09:19:07;;;;;;;7.22;2.80;;;23.80;99.90;;;;;;5009953;28;20153;-75
2022/08/10 09:21:45;;;;;;;4.38;2.45;;;23.90;99.90;;;;;;4996134;28;20045;-77
2022/08/10 09:24:37;;;;;;;4.93;2.33;;;23.90;99.90;;;;;;5011951;28;20063;-77
2022/08/10 09:27:13;;;;;;;5.72;2.90;;;24.00;99.90;;;;;;5008283;28;20048;-77
2022/08/10 09:29:56;;;;;;;5.85;2.42;;;24.10;99.90;;;;;;4991486;28;20915;-76
2022/08/10 09:32:37;;;;;;;6.13;2.50;;;24.20;99.90;;;;;;5008212;28;20080;-76
2022/08/10 09:35:17;;;;;;;5.47;2.15;;;24.40;99.90;;;;;;5015986;28;20048;-76
2022/08/10 09:37:57;;;;;;;6.95;1.95;;;24.50;99.90;;;;;;5006289;28;20111;-76
2022/08/10 09:40:55;;;;;;;9.32;2.67;;;24.50;98.20;;;;;;5007632;28;20049;-77
2022/08/10 09:43:53;;;;;;;7.40;2.33;;;24.60;99.00;;;;;;5012512;28;20086;-76
2022/08/10 09:46:41;;;;;;;5.65;2.10;;;24.70;98.70;;;;;;5005238;28;20129;-76
2022/08/10 09:49:50;;;;;;;3.17;1.80;;;24.80;98.90;;;;;;5006175;28;20054;-76
2022/08/10 09:53:03;;;;;;;4.53;2.13;;;24.90;97.10;;;;;;4999855;28;20571;-76
2022/08/10 09:55:37;;;;;;;5.43;2.20;;;25.10;96.10;;;;;;4983060;28;20059;-74
2022/08/10 09:58:14;;;;;;;4.47;1.90;;;25.10;96.20;;;;;;5012938;28;20128;-77
2022/08/10 10:00:48;;;;;;;4.43;1.95;;;25.20;96.00;;;;;;5001583;28;20046;-76
2022/08/10 10:03:26;;;;;;;3.90;1.92;;;25.30;95.50;;;;;;5021399;28;20061;-76
2022/08/10 10:06:09;;;;;;;4.03;1.55;;;25.50;95.30;;;;;;5013509;28;20046;-75
2022/08/10 10:08:54;;;;;;;3.33;1.70;;;25.60;94.30;;;;;;5004388;28;20088;-76
2022/08/10 10:11:23;;;;;;;3.75;1.70;;;25.70;92.30;;;;;;5008983;28;20089;-79
2022/08/10 10:14:00;;;;;;;3.58;1.38;;;25.80;90.70;;;;;;5010821;28;20048;-76
2022/08/10 10:16:48;;;;;;;2.47;1.30;;;25.80;91.00;;;;;;5005050;28;20049;-77
2022/08/10 10:19:27;;;;;;;3.03;1.40;;;26.00;90.20;;;;;;5009961;28;20050;-77
2022/08/10 10:22:11;;;;;;;5.00;1.40;;;26.10;89.20;;;;;;5008091;28;20518;-77
2022/08/10 10:25:00;;;;;;;2.90;1.50;;;26.10;85.70;;;;;;5010418;28;20716;-76
2022/08/10 10:27:35;;;;;;;3.60;1.38;;;26.30;86.40;;;;;;5009762;28;20124;-78
2022/08/10 10:30:01;;;;;;;3.65;1.25;;;26.30;82.20;;;;;;4994227;28;20053;-77
2022/08/10 10:32:33;;;;;;;2.78;1.42;;;26.30;84.50;;;;;;5007026;28;20056;-79
2022/08/10 10:35:07;;;;;;;3.45;1.50;;;26.40;82.30;;;;;;5003239;28;20417;-77
2022/08/10 10:37:35;;;;;;;4.03;1.58;;;26.40;83.80;;;;;;5011560;28;20042;-77
2022/08/10 10:40:02;;;;;;;3.92;1.80;;;26.50;77.50;;;;;;4988793;28;20066;-76
2022/08/10 10:42:45;;;;;;;2.58;1.40;;;26.40;79.70;;;;;;4997194;28;20080;-76
2022/08/10 10:45:33;;;;;;;3.22;1.40;;;26.50;80.30;;;;;;4985427;28;20061;-76
2022/08/10 10:48:18;;;;;;;2.53;1.63;;;26.50;76.50;;;;;;5014513;28;20072;-75
2022/08/10 10:50:54;;;;;;;3.22;1.35;;;26.50;76.00;;;;;;5009974;28;20696;-75
2022/08/10 10:53:32;;;;;;;2.75;1.30;;;26.40;77.00;;;;;;4998933;28;20546;-79
2022/08/10 10:56:23;;;;;;;3.25;1.15;;;26.40;74.30;;;;;;5013198;28;20046;-78
2022/08/10 10:59:20;;;;;;;3.75;1.63;;;26.60;78.10;;;;;;4994529;28;20049;-76
2022/08/10 11:01:57;;;;;;;2.97;1.23;;;26.80;75.20;;;;;;5000197;28;20133;-75
2022/08/10 11:04:44;;;;;;;5.03;1.35;;;26.90;73.10;;;;;;5020410;28;20057;-76
2022/08/10 11:07:43;;;;;;;3.97;1.50;;;26.90;69.60;;;;;;5004331;28;20053;-75
2022/08/10 11:10:12;;;;;;;;;;;26.90;71.10;;;;;;5015977;28;20057;-76
2022/08/10 11:12:43;;;;;;;4.13;1.37;;;27.00;69.30;;;;;;5018182;28;19957;-76
2022/08/10 11:15:22;;;;;;;4.20;1.08;;;27.00;67.30;;;;;;5014752;28;20041;-76
2022/08/10 11:18:10;;;;;;;3.15;1.23;;;27.00;66.80;;;;;;5013015;28;20103;-76
2022/08/10 11:21:17;;;;;;;3.63;1.52;;;27.00;66.00;;;;;;5017305;28;20061;-75
2022/08/10 11:23:51;;;;;;;4.93;1.55;;;27.00;66.40;;;;;;5017757;28;20446;-76
2022/08/10 11:26:53;;;;;;;2.88;1.15;;;27.00;65.30;;;;;;5003595;28;20053;-76
2022/08/10 11:29:37;;;;;;;3.40;1.55;;;27.10;65.40;;;;;;5004312;28;20497;-77
2022/08/10 11:32:18;;;;;;;3.50;1.30;;;27.20;65.40;;;;;;5009594;28;20057;-75
2022/08/10 11:35:02;;;;;;;2.90;1.38;;;27.20;67.60;;;;;;5017441;28;20042;-75
2022/08/10 11:37:34;;;;;;;2.97;1.23;;;27.30;68.00;;;;;;4997378;28;20046;-77
2022/08/10 11:40:23;;;;;;;3.22;1.20;;;27.40;65.60;;;;;;5001128;28;20763;-76
2022/08/10 11:43:08;;;;;;;4.68;1.20;;;27.60;65.10;;;;;;5014739;28;20077;-75
2022/08/10 11:45:38;;;;;;;4.68;1.30;;;27.80;63.90;;;;;;4996391;28;20053;-75
2022/08/10 11:48:10;;;;;;;4.25;1.00;;;27.90;62.70;;;;;;5008260;28;20057;-76
2022/08/10 11:51:03;;;;;;;3.60;1.40;;;28.00;61.40;;;;;;5011915;28;20038;-75
2022/08/10 11:53:38;;;;;;;2.00;1.00;;;28.10;62.50;;;;;;4989654;28;20156;-75
2022/08/10 11:56:05;;;;;;;9.35;1.45;;;28.20;61.20;;;;;;4994782;28;20576;-76
2022/08/10 12:01:28;;;;;;;3.97;1.30;;;28.40;58.20;;;;;;5013863;28;20049;-75
2022/08/10 12:03:56;;;;;;;3.28;1.10;;;28.30;58.00;;;;;;5013752;28;20049;-78
2022/08/10 12:06:25;;;;;;;3.08;1.15;;;28.30;58.90;;;;;;5014785;28;20041;-76
2022/08/10 12:08:55;;;;;;;3.13;0.90;;;28.40;56.40;;;;;;5007103;28;20527;-75
2022/08/10 12:11:25;;;;;;;3.33;1.10;;;28.30;55.10;;;;;;5003930;28;20114;-76
2022/08/10 12:14:08;;;;;;;2.92;1.00;;;28.20;54.80;;;;;;5009138;28;20050;-77
2022/08/10 12:16:39;;;;;;;2.53;1.10;;;28.10;57.30;;;;;;5016308;28;20407;-75
2022/08/10 12:19:17;;;;;;;3.22;1.17;;;28.10;58.30;;;;;;5013464;28;20084;-75
2022/08/10 12:21:56;;;;;;;2.75;1.10;;;28.30;58.90;;;;;;5017931;28;20045;-76
2022/08/10 12:24:50;;;;;;;3.30;1.17;;;28.40;58.50;;;;;;5012802;28;20056;-75
2022/08/10 12:27:40;;;;;;;2.90;1.20;;;28.50;57.30;;;;;;5006913;28;20386;-75
2022/08/10 12:30:06;;;;;;;;;;;28.50;55.40;;;;;;5008195;28;20057;-74
2022/08/10 12:32:47;;;;;;;2.53;1.05;;;28.50;55.50;;;;;;5009632;28;20636;-78
2022/08/10 12:35:33;;;;;;;2.30;0.93;;;28.40;53.20;;;;;;5005912;28;20048;-75
2022/08/10 12:38:41;;;;;;;2.33;0.90;;;28.40;56.20;;;;;;5033257;28;20407;-76
2022/08/10 12:41:16;;;;;;;1.65;0.90;;;28.50;55.90;;;;;;5000594;28;20053;-79
2022/08/10 12:44:03;;;;;;;1.63;0.98;;;28.60;55.80;;;;;;5006637;28;20582;-78
2022/08/10 12:46:45;;;;;;;2.25;1.00;;;28.50;55.70;;;;;;5015224;28;20176;-78
2022/08/10 12:49:34;;;;;;;2.50;0.90;;;28.60;53.30;;;;;;5024067;28;20085;-78
2022/08/10 12:52:03;;;;;;;;;;;28.60;53.00;;;;;;4998318;28;20463;-78
2022/08/10 12:54:35;;;;;;;4.25;0.90;;;28.60;53.00;;;;;;4994304;28;19926;-78
2022/08/10 12:57:08;;;;;;;2.58;1.10;;;28.60;53.10;;;;;;5007013;28;20060;-75
2022/08/10 12:59:42;;;;;;;1.75;1.15;;;28.60;52.90;;;;;;5017014;28;20054;-76
2022/08/10 13:02:13;;;;;;;2.38;0.77;;;28.60;53.40;;;;;;5002418;28;20060;-76
2022/08/10 13:04:42;;;;;;;2.35;1.05;;;28.70;53.20;;;;;;4998067;28;20627;-78
2022/08/10 13:07:09;;;;;;;2.92;1.10;;;28.70;52.50;;;;;;5012155;28;20041;-76
2022/08/10 13:09:36;;;;;;;3.17;1.00;;;28.70;51.10;;;;;;4977012;28;20520;-75
2022/08/10 13:12:10;;;;;;;3.47;1.30;;;28.70;53.00;;;;;;5017713;28;20064;-74
2022/08/10 13:15:15;;;;;;;3.45;1.20;;;28.70;53.30;;;;;;5012544;28;20042;-76
2022/08/10 13:17:46;;;;;;;2.90;0.90;;;28.70;51.80;;;;;;5006342;28;20110;-76
2022/08/10 13:20:25;;;;;;;3.05;1.10;;;28.70;52.60;;;;;;4998997;28;20830;-76
2022/08/10 13:22:58;;;;;;;2.63;1.25;;;28.70;51.80;;;;;;5013526;28;20124;-76